Time;durP1;ratioP1;P1;durP2;ratioP2;P2;SDS_P1;SDS_P2;PMS_P1;PMS_P2;Temp;Humidity;BMP_temperature;BMP_pressure;BME280_temperature;BME280_humidity;BME280_pressure;Samples;Min_cycle;Max_cycle;Signal;HPM_P1;HPM_P2
2022/08/20 00:00:04;;;;;;;;;;;18.20;99.90;;;;;;5112444;28;19948;-71
2022/08/20 00:02:38;;;;;;;;;;;18.20;99.90;;;;;;5107088;28;19920;-71
2022/08/20 00:05:05;;;;;;;;;;;18.20;99.90;;;;;;5105635;28;20238;-72
2022/08/20 00:07:31;;;;;;;;;;;18.20;99.90;;;;;;5105829;28;20114;-72
2022/08/20 00:09:58;;;;;;;;;;;18.10;99.90;;;;;;5105072;28;19986;-71
2022/08/20 00:12:25;;;;;;;;;;;18.10;99.90;;;;;;5105504;28;19928;-71
2022/08/20 00:14:53;;;;;;;;;;;18.10;99.90;;;;;;5105578;28;19983;-72
2022/08/20 00:17:19;;;;;;;;;;;18.10;99.90;;;;;;5105548;28;19966;-72
2022/08/20 00:19:46;;;;;;;;;;;18.10;99.90;;;;;;5105605;28;19952;-71
2022/08/20 00:22:13;;;;;;;;;;;18.10;99.90;;;;;;5105509;28;19944;-71
2022/08/20 00:24:40;;;;;;;;;;;18.10;99.90;;;;;;5105137;28;19924;-72
2022/08/20 00:27:06;;;;;;;;;;;18.10;99.90;;;;;;5105873;28;19988;-71
2022/08/20 00:29:33;;;;;;;;;;;18.20;99.90;;;;;;5105428;28;19987;-72
2022/08/20 00:32:01;;;;;;;;;;;18.20;99.90;;;;;;5105473;28;20230;-71
2022/08/20 00:34:29;;;;;;;;;;;18.20;99.90;;;;;;5104963;28;19991;-71
2022/08/20 00:36:55;;;;;;;;;;;18.20;99.90;;;;;;5105249;28;19920;-72
2022/08/20 00:39:22;;;;;;;;;;;18.20;99.90;;;;;;5105199;28;19943;-72
2022/08/20 00:41:50;;;;;;;;;;;18.20;99.90;;;;;;5104732;28;19920;-71
2022/08/20 00:44:18;;;;;;;;;;;18.20;99.90;;;;;;5104876;28;20114;-73
2022/08/20 00:46:45;;;;;;;;;;;18.20;99.90;;;;;;5104877;28;19920;-71
2022/08/20 00:49:16;;;;;;;;;;;18.20;99.90;;;;;;5105237;28;20050;-71
2022/08/20 00:51:44;;;;;;;;;;;18.20;99.90;;;;;;5105057;28;19966;-71
2022/08/20 00:54:12;;;;;;;;;;;18.30;99.90;;;;;;5104690;28;19982;-70
2022/08/20 00:56:42;;;;;;;;;;;18.20;99.90;;;;;;5104822;28;19956;-70
2022/08/20 00:59:12;;;;;;;;;;;18.30;99.90;;;;;;5104881;28;19920;-70
2022/08/20 01:01:39;;;;;;;;;;;18.30;99.90;;;;;;5104655;28;19956;-71
2022/08/20 01:04:05;;;;;;;;;;;18.30;99.90;;;;;;5104672;28;19983;-72
2022/08/20 01:06:33;;;;;;;;;;;18.30;99.90;;;;;;5104422;28;19920;-70
2022/08/20 01:09:01;;;;;;;;;;;18.30;99.90;;;;;;5104720;28;19992;-72
2022/08/20 01:11:32;;;;;;;;;;;18.30;99.90;;;;;;5104633;28;19920;-70
2022/08/20 01:14:02;;;;;;;;;;;18.30;99.90;;;;;;5104229;28;19966;-70
2022/08/20 01:16:31;;;;;;;;;;;18.30;99.90;;;;;;5104290;28;20200;-72
2022/08/20 01:18:59;;;;;;;;;;;18.30;99.90;;;;;;5104335;28;20165;-71
2022/08/20 01:21:27;;;;;;;;;;;18.30;99.90;;;;;;5103527;28;19920;-72
2022/08/20 01:23:59;;;;;;;;;;;18.30;99.90;;;;;;5104183;28;19920;-72
2022/08/20 01:26:28;;;;;;;;;;;18.20;99.90;;;;;;5104321;28;19983;-71
2022/08/20 01:28:56;;;;;;;;;;;18.20;99.90;;;;;;5104316;28;19983;-71
2022/08/20 01:31:25;;;;;;;;;;;18.20;99.90;;;;;;5104085;28;19927;-70
2022/08/20 01:33:53;;;;;;;;;;;18.20;99.90;;;;;;5104049;28;19920;-70
2022/08/20 01:36:21;;;;;;;;;;;18.20;99.90;;;;;;5103910;28;19920;-71
2022/08/20 01:38:48;;;;;;;;;;;18.20;99.90;;;;;;5103945;28;20093;-71
2022/08/20 01:41:33;;;;;;;;;;;18.20;99.90;;;;;;5103911;28;19928;-71
2022/08/20 01:44:01;;;;;;;;;;;18.20;99.90;;;;;;5103983;28;19920;-71
2022/08/20 01:46:31;;;;;;;;;;;18.20;99.90;;;;;;5103910;28;19962;-71
2022/08/20 01:48:59;;;;;;;;;;;18.10;99.90;;;;;;5104035;28;19955;-71
2022/08/20 01:51:27;;;;;;;;;;;18.20;99.90;;;;;;5103909;28;19983;-71
2022/08/20 01:53:55;;;;;;;;;;;18.20;99.90;;;;;;5103785;28;19983;-71
2022/08/20 01:56:22;;;;;;;;;;;18.20;99.90;;;;;;5103728;28;19955;-72
2022/08/20 01:58:52;;;;;;;;;;;18.20;99.90;;;;;;5103761;28;19983;-72
2022/08/20 02:01:21;;;;;;;;;;;18.20;99.90;;;;;;5103817;28;19920;-71
2022/08/20 02:03:48;;;;;;;;;;;18.20;99.90;;;;;;5103511;28;19927;-72
2022/08/20 02:06:14;;;;;;;;;;;18.20;99.90;;;;;;5103488;28;19928;-71
2022/08/20 02:08:41;;;;;;;;;;;18.20;99.90;;;;;;5103792;28;19963;-71
2022/08/20 02:11:08;;;;;;;;;;;18.20;99.90;;;;;;5103706;28;19959;-71
2022/08/20 02:13:35;;;;;;;;;;;18.20;99.90;;;;;;5103364;28;19920;-71
2022/08/20 02:16:01;;;;;;;;;;;18.20;99.90;;;;;;5103497;28;20167;-71
2022/08/20 02:18:30;;;;;;;;;;;18.20;99.90;;;;;;5103295;28;20194;-72
2022/08/20 02:20:56;;;;;;;;;;;18.20;99.90;;;;;;5103795;28;19920;-71
2022/08/20 02:23:23;;;;;;;;;;;18.20;99.90;;;;;;5103146;28;19991;-71
2022/08/20 02:25:50;;;;;;;;;;;18.30;99.90;;;;;;5103575;28;19987;-72
2022/08/20 02:28:18;;;;;;;;;;;18.20;99.90;;;;;;5103842;28;19926;-71
2022/08/20 02:30:46;;;;;;;;;;;18.20;99.90;;;;;;5103504;28;19920;-71
2022/08/20 02:33:14;;;;;;;;;;;18.20;99.90;;;;;;5106490;28;19920;-71
2022/08/20 02:35:43;;;;;;;;;;;18.20;99.90;;;;;;5107751;28;19954;-71
2022/08/20 02:38:10;;;;;;;;;;;18.20;99.90;;;;;;5107522;28;19920;-72
2022/08/20 02:40:37;;;;;;;;;;;18.20;99.90;;;;;;5106822;28;19987;-71
2022/08/20 02:43:04;;;;;;;;;;;18.20;99.90;;;;;;5107252;28;20178;-71
2022/08/20 02:45:34;;;;;;;;;;;18.20;99.90;;;;;;5107238;28;20160;-72
2022/08/20 02:48:01;;;;;;;;;;;18.20;99.90;;;;;;5107802;28;20116;-71
2022/08/20 02:50:28;;;;;;;;;;;18.20;99.90;;;;;;5107517;28;19987;-71
2022/08/20 02:52:56;;;;;;;;;;;18.20;99.90;;;;;;5107116;28;19920;-71
2022/08/20 02:55:23;;;;;;;;;;;18.20;99.90;;;;;;5107267;28;19955;-72
2022/08/20 02:57:49;;;;;;;;;;;18.20;99.90;;;;;;5107199;28;19920;-71
2022/08/20 03:00:18;;;;;;;;;;;18.10;99.90;;;;;;5107155;28;19942;-72
2022/08/20 03:02:44;;;;;;;;;;;18.20;99.90;;;;;;5106945;28;19965;-72
2022/08/20 03:05:11;;;;;;;;;;;18.20;99.90;;;;;;5107084;28;19924;-72
2022/08/20 03:07:41;;;;;;;;;;;18.20;99.90;;;;;;5106947;28;19920;-71
2022/08/20 03:10:10;;;;;;;;;;;18.20;99.90;;;;;;5107175;28;19987;-72
2022/08/20 03:12:37;;;;;;;;;;;18.20;99.90;;;;;;5110309;28;20246;-73
2022/08/20 03:15:04;;;;;;;;;;;18.20;99.90;;;;;;5111603;28;19969;-73
2022/08/20 03:17:31;;;;;;;;;;;18.10;99.90;;;;;;5107730;28;19987;-72
2022/08/20 03:19:58;;;;;;;;;;;18.10;99.90;;;;;;5106861;28;19991;-71
2022/08/20 03:22:24;;;;;;;;;;;18.10;99.90;;;;;;5106549;28;19920;-71
2022/08/20 03:24:51;;;;;;;;;;;18.10;99.90;;;;;;5106427;28;19958;-72
2022/08/20 03:27:19;;;;;;;;;;;18.00;99.90;;;;;;5106538;28;19951;-72
2022/08/20 03:29:45;;;;;;;;;;;18.00;99.90;;;;;;5106387;28;20200;-72
2022/08/20 03:32:12;;;;;;;;;;;18.00;99.90;;;;;;5106699;28;19995;-72
2022/08/20 03:34:39;;;;;;;;;;;18.00;99.90;;;;;;5106645;28;19924;-72
2022/08/20 03:37:05;;;;;;;;;;;18.00;99.90;;;;;;5106571;28;19920;-71
2022/08/20 03:39:32;;;;;;;;;;;18.00;99.90;;;;;;5105814;28;19991;-71
2022/08/20 03:41:59;;;;;;;;;;;17.90;99.90;;;;;;5106327;28;19920;-72
2022/08/20 03:44:27;;;;;;;;;;;17.90;99.90;;;;;;5104888;28;19970;-72
2022/08/20 03:46:53;;;;;;;;;;;17.80;99.90;;;;;;5106392;28;19959;-72
2022/08/20 03:49:20;;;;;;;;;;;17.80;99.90;;;;;;5106332;28;19920;-72
2022/08/20 03:51:47;;;;;;;;;;;17.70;99.90;;;;;;5106316;28;19935;-71
2022/08/20 03:54:13;;;;;;;;;;;17.70;99.90;;;;;;5105804;28;19983;-72
2022/08/20 03:56:40;;;;;;;;;;;17.70;99.90;;;;;;5106110;28;19992;-72
2022/08/20 03:59:07;;;;;;;;;;;17.60;99.90;;;;;;5106045;28;19987;-72
2022/08/20 04:01:35;;;;;;;;;;;17.60;99.90;;;;;;5106210;28;19923;-72
2022/08/20 04:04:01;;;;;;;;;;;17.60;99.90;;;;;;5105804;28;19927;-72
2022/08/20 04:06:29;;;;;;;;;;;17.60;99.90;;;;;;5105871;28;19955;-72
2022/08/20 04:08:55;;;;;;;;;;;17.50;99.90;;;;;;5105837;28;19927;-72
2022/08/20 04:11:22;;;;;;;;;;;17.50;99.90;;;;;;5105977;28;19958;-72
2022/08/20 04:13:49;;;;;;;;;;;17.50;99.90;;;;;;5105679;28;19959;-72
2022/08/20 04:16:16;;;;;;;;;;;17.50;99.90;;;;;;5105680;28;19984;-72
2022/08/20 04:18:44;;;;;;;;;;;17.40;99.90;;;;;;5105553;28;20186;-72
2022/08/20 04:21:10;;;;;;;;;;;17.40;99.90;;;;;;5105592;28;19995;-72
2022/08/20 04:23:38;;;;;;;;;;;17.40;99.90;;;;;;5104299;28;19995;-72
2022/08/20 04:26:05;;;;;;;;;;;17.40;99.90;;;;;;5105635;28;19920;-72
2022/08/20 04:28:32;;;;;;;;;;;17.40;99.90;;;;;;5105668;28;19981;-71
2022/08/20 04:31:00;;;;;;;;;;;17.40;99.90;;;;;;5105458;28;19920;-71
2022/08/20 04:33:29;;;;;;;;;;;17.40;99.90;;;;;;5105078;28;19987;-72
2022/08/20 04:35:59;;;;;;;;;;;17.40;99.90;;;;;;5105235;28;19920;-72
2022/08/20 04:38:26;;;;;;;;;;;17.40;99.90;;;;;;5105439;28;19942;-71
2022/08/20 04:40:52;;;;;;;;;;;17.40;99.90;;;;;;5104600;28;19987;-72
2022/08/20 04:43:19;;;;;;;;;;;17.40;99.90;;;;;;5105261;28;19924;-71
2022/08/20 04:45:46;;;;;;;;;;;17.40;99.90;;;;;;5105068;28;20223;-71
2022/08/20 04:48:13;;;;;;;;;;;17.50;99.90;;;;;;5105123;28;19987;-71
2022/08/20 04:50:40;;;;;;;;;;;17.50;99.90;;;;;;5104956;28;19986;-71
2022/08/20 04:53:09;;;;;;;;;;;17.50;99.90;;;;;;5104890;28;19987;-71
2022/08/20 04:55:38;;;;;;;;;;;17.50;99.90;;;;;;5104727;28;19958;-72
2022/08/20 04:58:05;;;;;;;;;;;17.50;99.90;;;;;;5104710;28;19946;-71
2022/08/20 05:00:32;;;;;;;;;;;17.40;99.90;;;;;;5104942;28;19948;-71
2022/08/20 05:02:58;;;;;;;;;;;17.30;99.90;;;;;;5104440;28;19947;-71
2022/08/20 05:05:26;;;;;;;;;;;17.30;99.90;;;;;;5104637;28;19991;-71
2022/08/20 05:07:53;;;;;;;;;;;17.30;99.90;;;;;;5104887;28;19957;-71
2022/08/20 05:10:22;;;;;;;;;;;17.30;99.90;;;;;;5104896;28;20093;-71
2022/08/20 05:12:49;;;;;;;;;;;17.40;99.90;;;;;;5104391;28;19920;-72
2022/08/20 05:15:16;;;;;;;;;;;17.40;99.90;;;;;;5104587;28;20008;-71
2022/08/20 05:17:44;;;;;;;;;;;17.40;99.90;;;;;;5104374;28;20255;-72
2022/08/20 05:20:12;;;;;;;;;;;17.30;99.90;;;;;;5104582;28;19920;-72
2022/08/20 05:22:39;;;;;;;;;;;17.40;99.90;;;;;;5103953;28;19983;-72
2022/08/20 05:25:06;;;;;;;;;;;17.40;99.90;;;;;;5104205;28;19987;-71
2022/08/20 05:27:34;;;;;;;;;;;17.40;99.90;;;;;;5104350;28;20123;-71
2022/08/20 05:30:01;;;;;;;;;;;17.40;99.90;;;;;;5104279;28;20111;-73
2022/08/20 05:32:29;;;;;;;;;;;17.50;99.90;;;;;;5104068;28;19928;-72
2022/08/20 05:34:56;;;;;;;;;;;17.50;99.90;;;;;;5104009;28;19920;-71
2022/08/20 05:37:22;;;;;;;;;;;17.50;99.90;;;;;;5104335;28;20406;-71
2022/08/20 05:39:49;;;;;;;;;;;17.50;99.90;;;;;;5103087;28;19920;-71
2022/08/20 05:42:16;;;;;;;;;;;17.50;99.90;;;;;;5104139;28;19963;-71
2022/08/20 05:44:45;;;;;;;;;;;17.50;99.90;;;;;;5103618;28;19983;-72
2022/08/20 05:47:12;;;;;;;;;;;17.50;99.90;;;;;;5104466;28;19920;-72
2022/08/20 05:49:39;;;;;;;;;;;17.60;99.90;;;;;;5104245;28;19983;-71
2022/08/20 05:52:05;;;;;;;;;;;17.60;99.90;;;;;;5103990;28;20132;-72
2022/08/20 05:54:32;;;;;;;;;;;17.60;99.90;;;;;;5103633;28;19958;-71
2022/08/20 05:56:59;;;;;;;;;;;17.60;99.90;;;;;;5103730;28;20255;-70
2022/08/20 05:59:26;;;;;;;;;;;17.60;99.90;;;;;;5103776;28;20169;-72
2022/08/20 06:01:54;;;;;;;;;;;17.60;99.90;;;;;;5103933;28;19942;-71
2022/08/20 06:04:27;;;;;;;;;;;17.60;99.90;;;;;;5103422;28;19983;-71
2022/08/20 06:06:54;;;;;;;;;;;17.60;99.90;;;;;;5103138;28;19916;-71
2022/08/20 06:09:23;;;;;;;;;;;17.60;99.90;;;;;;5103637;28;19963;-71
2022/08/20 06:11:49;;;;;;;;;;;17.60;99.90;;;;;;5103532;28;19920;-71
2022/08/20 06:14:16;;;;;;;;;;;17.50;99.90;;;;;;5103383;28;19963;-71
2022/08/20 06:16:43;;;;;;;;;;;17.60;99.90;;;;;;5103612;28;19958;-71
2022/08/20 06:19:11;;;;;;;;;;;17.60;99.90;;;;;;5103325;28;19991;-72
2022/08/20 06:21:38;;;;;;;;;;;17.50;99.90;;;;;;5103535;28;19927;-71
2022/08/20 06:24:05;;;;;;;;;;;17.60;99.90;;;;;;5103291;28;19991;-72
2022/08/20 06:26:33;;;;;;;;;;;17.60;99.90;;;;;;5103371;28;20255;-71
2022/08/20 06:29:00;;;;;;;;;;;17.60;99.90;;;;;;5103687;28;19965;-71
2022/08/20 06:31:27;;;;;;;;;;;17.60;99.90;;;;;;5103413;28;20111;-72
2022/08/20 06:33:53;;;;;;;;;;;17.60;99.90;;;;;;5103167;28;19942;-71
2022/08/20 06:36:21;;;;;;;;;;;17.60;99.90;;;;;;5103316;28;19920;-71
2022/08/20 06:38:48;;;;;;;;;;;17.60;99.90;;;;;;5103350;28;20099;-72
2022/08/20 06:41:15;;;;;;;;;;;17.70;99.90;;;;;;5103054;28;19995;-71
2022/08/20 06:43:42;;;;;;;;;;;17.70;99.90;;;;;;5103068;28;19920;-70
2022/08/20 06:46:08;;;;;;;;;;;17.70;99.90;;;;;;5103190;28;19955;-71
2022/08/20 06:48:35;;;;;;;;;;;17.70;99.90;;;;;;5103811;28;19959;-70
2022/08/20 06:51:02;;;;;;;;;;;17.70;99.90;;;;;;5103208;28;20118;-71
2022/08/20 06:53:30;;;;;;;;;;;17.70;99.90;;;;;;5102751;28;20184;-71
2022/08/20 06:55:58;;;;;;;;;;;17.70;99.90;;;;;;5103426;28;19958;-71
2022/08/20 06:58:25;;;;;;;;;;;17.80;99.90;;;;;;5103308;28;19927;-71
2022/08/20 07:00:51;;;;;;;;;;;17.70;99.90;;;;;;5103109;28;19927;-71
2022/08/20 07:03:19;;;;;;;;;;;17.80;99.90;;;;;;5102887;28;19960;-71
2022/08/20 07:05:45;;;;;;;;;;;17.80;99.90;;;;;;5103016;28;19921;-71
2022/08/20 07:08:13;;;;;;;;;;;17.90;99.90;;;;;;5102944;28;19991;-71
2022/08/20 07:10:42;;;;;;;;;;;17.90;99.90;;;;;;5103294;28;19920;-70
2022/08/20 07:13:08;;;;;;;;;;;17.90;99.90;;;;;;5102779;28;19920;-71
2022/08/20 07:15:35;;;;;;;;;;;17.90;99.90;;;;;;5102883;28;19959;-71
2022/08/20 07:18:02;;;;;;;;;;;17.90;99.90;;;;;;5104340;28;19987;-71
2022/08/20 07:20:30;;;;;;;;;;;17.90;99.90;;;;;;5106620;28;20097;-72
2022/08/20 07:22:57;;;;;;;;;;;17.90;99.90;;;;;;5105778;28;19920;-70
2022/08/20 07:25:24;;;;;;;;;;;18.00;99.90;;;;;;5106664;28;19987;-72
2022/08/20 07:27:52;;;;;;;;;;;18.00;99.90;;;;;;5106638;28;19986;-71
2022/08/20 07:33:05;;;;;;;;;;;18.00;99.90;;;;;;5106262;28;19923;-72
2022/08/20 07:35:31;;;;;;;;;;;18.10;99.90;;;;;;5106763;28;19959;-71
2022/08/20 07:37:58;;;;;;;;;;;18.10;99.90;;;;;;5106737;28;19999;-71
2022/08/20 07:40:27;;;;;;;;;;;18.20;99.90;;;;;;5106553;28;19963;-71
2022/08/20 07:42:55;;;;;;;;;;;18.20;99.90;;;;;;5106243;28;19920;-72
2022/08/20 07:45:22;;;;;;;;;;;18.20;99.90;;;;;;5106242;28;19956;-71
2022/08/20 07:47:49;;;;;;;;;;;18.20;99.90;;;;;;5106217;28;20262;-72
2022/08/20 07:50:19;;;;;;;;;;;18.30;99.90;;;;;;5106614;28;19920;-71
2022/08/20 07:52:45;;;;;;;;;;;18.30;99.90;;;;;;5105841;28;19942;-72
2022/08/20 07:55:14;;;;;;;;;;;18.40;99.90;;;;;;5106228;28;19965;-71
2022/08/20 07:57:41;;;;;;;;;;;18.40;99.90;;;;;;5106104;28;19955;-70
2022/08/20 08:00:10;;;;;;;;;;;18.50;99.90;;;;;;5105811;28;19983;-72
2022/08/20 08:02:38;;;;;;;;;;;18.50;99.90;;;;;;5105796;28;19920;-72
2022/08/20 08:05:05;;;;;;;;;;;18.60;99.90;;;;;;5105771;28;19926;-72
2022/08/20 08:07:32;;;;;;;;;;;18.60;99.90;;;;;;5105988;28;19920;-71
2022/08/20 08:10:00;;;;;;;;;;;18.70;99.90;;;;;;5106181;28;19920;-72
2022/08/20 08:12:30;;;;;;;;;;;18.80;99.90;;;;;;5105743;28;19919;-72
2022/08/20 08:14:56;;;;;;;;;;;18.80;99.90;;;;;;5105420;28;19920;-72
2022/08/20 08:17:24;;;;;;;;;;;19.00;99.90;;;;;;5105568;28;19963;-72
2022/08/20 08:19:51;;;;;;;;;;;19.00;99.90;;;;;;5105696;28;19926;-71
2022/08/20 08:22:18;;;;;;;;;;;19.10;99.90;;;;;;5104946;28;20232;-71
2022/08/20 08:24:46;;;;;;;;;;;19.30;99.90;;;;;;5105365;28;19983;-71
2022/08/20 08:27:13;;;;;;;;;;;19.40;99.90;;;;;;5105375;28;19927;-71
2022/08/20 08:29:40;;;;;;;;;;;19.50;99.90;;;;;;5105027;28;19991;-71
2022/08/20 08:32:07;;;;;;;;;;;19.60;99.90;;;;;;5105635;28;20170;-72
2022/08/20 08:34:36;;;;;;;;;;;19.70;99.90;;;;;;5105172;28;20163;-72
2022/08/20 08:37:04;;;;;;;;;;;19.90;99.90;;;;;;5105162;28;19956;-70
2022/08/20 08:39:31;;;;;;;;;;;20.00;99.90;;;;;;5104601;28;19920;-71
2022/08/20 08:41:59;;;;;;;;;;;20.10;99.90;;;;;;5105191;28;19979;-71
2022/08/20 08:44:27;;;;;;;;;;;20.30;99.90;;;;;;5104990;28;19920;-71
2022/08/20 08:46:56;;;;;;;;;;;20.40;99.90;;;;;;5105008;28;19962;-71
2022/08/20 08:49:25;;;;;;;;;;;20.40;99.90;;;;;;5105136;28;19966;-71
2022/08/20 08:52:03;;;;;;;;;;;20.50;99.90;;;;;;5104983;28;19921;-71
2022/08/20 08:54:31;;;;;;;;;;;20.60;99.90;;;;;;5104670;28;19920;-71
2022/08/20 08:56:58;;;;;;;;;;;20.70;99.90;;;;;;5105189;28;19927;-71
2022/08/20 08:59:27;;;;;;;;;;;20.80;99.90;;;;;;5105153;28;19958;-71
2022/08/20 09:01:55;;;;;;;;;;;20.80;99.90;;;;;;5104932;28;19920;-71
2022/08/20 09:04:22;;;;;;;;;;;20.90;99.90;;;;;;5104545;28;20267;-72
2022/08/20 09:06:52;;;;;;;;;;;21.00;99.90;;;;;;5104649;28;20161;-72
2022/08/20 09:09:22;;;;;;;;;;;21.10;99.90;;;;;;5104962;28;19928;-72
2022/08/20 09:11:51;;;;;;;;;;;21.20;99.90;;;;;;5104999;28;19952;-71
2022/08/20 09:14:18;;;;;;;;;;;21.30;99.90;;;;;;5104437;28;20146;-72
2022/08/20 09:16:45;;;;;;;;;;;21.40;99.90;;;;;;5104552;28;19965;-71
2022/08/20 09:19:12;;;;;;;;;;;21.50;99.90;;;;;;5104411;28;19959;-71
2022/08/20 09:21:39;;;;;;;;;;;21.50;99.90;;;;;;5104451;28;19983;-73
2022/08/20 09:24:05;;;;;;;;;;;21.60;99.90;;;;;;5104354;28;19926;-72
2022/08/20 09:26:33;;;;;;;;;;;21.70;99.90;;;;;;5104393;28;19988;-72
2022/08/20 09:29:00;;;;;;;;;;;21.80;99.90;;;;;;5104381;28;19987;-72
2022/08/20 09:31:27;;;;;;;;;;;21.80;99.90;;;;;;5104313;28;19975;-72
2022/08/20 09:33:53;;;;;;;;;;;21.80;99.90;;;;;;5103924;28;19956;-72
2022/08/20 09:36:20;;;;;;;;;;;21.90;99.90;;;;;;5104305;28;19958;-71
2022/08/20 09:38:47;;;;;;;;;;;21.90;99.90;;;;;;5104268;28;19966;-71
2022/08/20 09:41:13;;;;;;;;;;;21.90;99.90;;;;;;5102614;28;19924;-71
2022/08/20 09:43:41;;;;;;;;;;;21.90;99.90;;;;;;5103929;28;20283;-71
2022/08/20 09:46:08;;;;;;;;;;;21.90;99.90;;;;;;5103915;28;19999;-72
2022/08/20 09:48:35;;;;;;;;;;;21.90;99.90;;;;;;5104485;28;19987;-72
2022/08/20 09:51:02;;;;;;;;;;;22.00;99.90;;;;;;5104114;28;19966;-72
2022/08/20 09:53:29;;;;;;;;;;;22.00;99.90;;;;;;5103779;28;19958;-72
2022/08/20 09:55:57;;;;;;;;;;;22.00;99.90;;;;;;5103826;28;20148;-73
2022/08/20 09:58:25;;;;;;;;;;;22.10;99.90;;;;;;5103898;28;19928;-71
2022/08/20 10:00:53;;;;;;;;;;;22.00;99.90;;;;;;5103698;28;20111;-72
2022/08/20 10:03:20;;;;;;;;;;;22.20;99.90;;;;;;5104548;28;19920;-72
2022/08/20 10:05:46;;;;;;;;;;;22.10;99.90;;;;;;5108106;28;19990;-72
2022/08/20 10:08:13;;;;;;;;;;;22.20;99.90;;;;;;5104474;28;19920;-72
2022/08/20 10:10:40;;;;;;;;;;;22.20;99.90;;;;;;5103572;28;20114;-72
2022/08/20 10:13:07;;;;;;;;;;;22.20;99.90;;;;;;5103379;28;19927;-72
2022/08/20 10:15:33;;;;;;;;;;;22.20;99.90;;;;;;5103511;28;19955;-72
2022/08/20 10:18:06;;;;;;;;;;;22.20;99.90;;;;;;5103410;28;19928;-73
2022/08/20 10:20:33;;;;;;;;;;;22.30;99.90;;;;;;5103361;28;19927;-72
2022/08/20 10:23:00;;;;;;;;;;;22.30;99.90;;;;;;5102885;28;19987;-73
2022/08/20 10:25:27;;;;;;;;;;;22.30;99.90;;;;;;5103774;28;19935;-72
2022/08/20 10:27:54;;;;;;;;;;;22.40;99.90;;;;;;5103639;28;19966;-72
2022/08/20 10:30:20;;;;;;;;;;;22.30;99.90;;;;;;5103247;28;19980;-72
2022/08/20 10:32:47;;;;;;;;;;;22.30;99.90;;;;;;5103231;28;20123;-72
2022/08/20 10:35:15;;;;;;;;;;;22.20;99.90;;;;;;5103314;28;20169;-72
2022/08/20 10:37:42;;;;;;;;;;;22.20;99.90;;;;;;5103432;28;20240;-72
2022/08/20 10:40:09;;;;;;;;;;;22.10;99.90;;;;;;5103283;28;20199;-72
2022/08/20 10:42:36;;;;;;;;;;;22.10;99.90;;;;;;5103148;28;20172;-72
2022/08/20 10:45:03;;;;;;;;;;;22.20;99.90;;;;;;5103384;28;20231;-73
2022/08/20 10:47:30;;;;;;;;;;;22.20;99.90;;;;;;5103542;28;19951;-73
2022/08/20 10:49:58;;;;;;;;;;;22.30;99.90;;;;;;5103390;28;19992;-73
2022/08/20 10:52:27;;;;;;;;;;;22.30;99.90;;;;;;5103569;28;20131;-73
2022/08/20 10:54:54;;;;;;;;;;;22.40;99.90;;;;;;5107083;28;19963;-73
2022/08/20 10:57:21;;;;;;;;;;;22.50;99.90;;;;;;5107124;28;19927;-73
2022/08/20 10:59:49;;;;;;;;;;;22.60;99.90;;;;;;5107153;28;19920;-73
2022/08/20 11:02:15;;;;;;;;;;;22.60;99.90;;;;;;5107330;28;19991;-73
2022/08/20 11:04:43;;;;;;;;;;;22.70;99.90;;;;;;5106767;28;19920;-73
2022/08/20 11:07:10;;;;;;;;;;;22.70;99.90;;;;;;5107075;28;19959;-72
2022/08/20 11:09:38;;;;;;;;;;;22.70;99.90;;;;;;5107021;28;20230;-72
2022/08/20 11:12:05;;;;;;;;;;;22.80;99.90;;;;;;5106856;28;19987;-73
2022/08/20 11:14:32;;;;;;;;;;;22.70;99.90;;;;;;5106846;28;19928;-73
2022/08/20 11:16:59;;;;;;;;;;;22.70;99.90;;;;;;5106955;28;19920;-73
2022/08/20 11:19:25;;;;;;;;;;;22.60;99.90;;;;;;5106834;28;20204;-73
2022/08/20 11:21:53;;;;;;;;;;;22.50;99.90;;;;;;5106115;28;19990;-72
2022/08/20 11:24:20;;;;;;;;;;;22.40;99.90;;;;;;5106488;28;19927;-73
2022/08/20 11:26:49;;;;;;;;;;;22.50;99.90;;;;;;5106917;28;19920;-72
2022/08/20 11:29:16;;;;;;;;;;;22.40;99.90;;;;;;5106854;28;20009;-73
2022/08/20 11:31:42;;;;;;;;;;;22.40;99.90;;;;;;5106522;28;19979;-73
2022/08/20 11:34:09;;;;;;;;;;;22.50;99.90;;;;;;5106203;28;20221;-73
2022/08/20 11:36:36;;;;;;;;;;;22.40;99.90;;;;;;5106447;28;20127;-73
2022/08/20 11:39:03;;;;;;;;;;;22.50;99.90;;;;;;5106807;28;19962;-73
2022/08/20 11:41:30;;;;;;;;;;;22.60;99.90;;;;;;5105704;28;19959;-73
2022/08/20 11:43:58;;;;;;;;;;;22.70;99.90;;;;;;5106416;28;19927;-73
2022/08/20 11:46:25;;;;;;;;;;;22.80;99.90;;;;;;5106518;28;19987;-73
2022/08/20 11:48:51;;;;;;;;;;;22.90;99.90;;;;;;5106383;28;19991;-72
2022/08/20 11:51:18;;;;;;;;;;;22.90;99.90;;;;;;5106270;28;19952;-73
2022/08/20 11:53:45;;;;;;;;;;;22.90;99.90;;;;;;5105843;28;19960;-73
2022/08/20 11:56:15;;;;;;;;;;;23.00;99.90;;;;;;5106232;28;19987;-73
2022/08/20 11:58:41;;;;;;;;;;;23.00;99.90;;;;;;5106022;28;19924;-73
2022/08/20 12:01:09;;;;;;;;;;;23.00;99.90;;;;;;5105793;28;19995;-73
2022/08/20 12:03:36;;;;;;;;;;;23.10;99.90;;;;;;5105679;28;19970;-73
2022/08/20 12:06:03;;;;;;;;;;;23.10;99.90;;;;;;5104819;28;19955;-73
2022/08/20 12:08:29;;;;;;;;;;;23.20;99.90;;;;;;5106074;28;19951;-73
2022/08/20 12:10:57;;;;;;;;;;;23.20;99.90;;;;;;5105873;28;19920;-73
2022/08/20 12:13:24;;;;;;;;;;;23.20;99.90;;;;;;5105775;28;19920;-73
2022/08/20 12:15:50;;;;;;;;;;;23.30;99.90;;;;;;5105699;28;19955;-73
2022/08/20 12:18:19;;;;;;;;;;;23.40;99.90;;;;;;5105733;28;20141;-73
2022/08/20 12:20:45;;;;;;;;;;;23.30;99.90;;;;;;5105559;28;19921;-73
2022/08/20 12:23:12;;;;;;;;;;;23.30;99.90;;;;;;5104807;28;19920;-73
2022/08/20 12:25:39;;;;;;;;;;;23.20;99.90;;;;;;5105629;28;19987;-72
2022/08/20 12:28:06;;;;;;;;;;;23.20;99.90;;;;;;5105757;28;19951;-72
2022/08/20 12:30:33;;;;;;;;;;;23.00;99.90;;;;;;5105378;28;19983;-72
2022/08/20 12:33:00;;;;;;;;;;;23.00;99.90;;;;;;5105129;28;19955;-72
2022/08/20 12:35:28;;;;;;;;;;;23.10;99.90;;;;;;5105320;28;19932;-73
2022/08/20 12:37:55;;;;;;;;;;;23.20;99.90;;;;;;5105615;28;19943;-72
2022/08/20 12:40:22;;;;;;;;;;;23.10;99.90;;;;;;5104535;28;20059;-73
2022/08/20 12:42:49;;;;;;;;;;;23.20;99.90;;;;;;5105076;28;19962;-72
2022/08/20 12:45:16;;;;;;;;;;;23.20;99.90;;;;;;5105139;28;19959;-72
2022/08/20 12:47:44;;;;;;;;;;;23.30;99.90;;;;;;5105118;28;19962;-72
2022/08/20 12:50:12;;;;;;;;;;;23.30;99.90;;;;;;5105366;28;19983;-71
2022/08/20 12:52:40;;;;;;;;;;;23.30;99.90;;;;;;5104901;28;19975;-71
2022/08/20 12:55:09;;;;;;;;;;;23.30;99.90;;;;;;5104910;28;19979;-71
2022/08/20 12:57:37;;;;;;;;;;;23.40;99.90;;;;;;5104986;28;19983;-71
2022/08/20 13:00:05;;;;;;;;;;;23.40;99.90;;;;;;5104843;28;19921;-72
2022/08/20 13:02:32;;;;;;;;;;;23.40;99.90;;;;;;5104591;28;20154;-72
2022/08/20 13:04:59;;;;;;;;;;;23.40;99.90;;;;;;5104899;28;19947;-71
2022/08/20 13:07:26;;;;;;;;;;;23.50;99.90;;;;;;5104635;28;20239;-71
2022/08/20 13:09:54;;;;;;;;;;;23.50;99.90;;;;;;5104798;28;20189;-71
2022/08/20 13:12:20;;;;;;;;;;;23.60;99.90;;;;;;5104557;28;19927;-71
2022/08/20 13:14:47;;;;;;;;;;;23.80;99.90;;;;;;5104243;28;19928;-72
2022/08/20 13:17:16;;;;;;;;;;;23.90;99.90;;;;;;5104445;28;19920;-71
2022/08/20 13:19:43;;;;;;;;;;;24.10;99.90;;;;;;5104685;28;19991;-72
2022/08/20 13:22:10;;;;;;;;;;;24.20;99.90;;;;;;5104049;28;19942;-72
2022/08/20 13:24:37;;;;;;;;;;;24.20;99.90;;;;;;5104391;28;19920;-72
2022/08/20 13:27:06;;;;;;;;;;;24.20;99.90;;;;;;5104411;28;19987;-72
2022/08/20 13:29:33;;;;;;;;;;;24.00;99.90;;;;;;5104169;28;19965;-72
2022/08/20 13:31:59;;;;;;;;;;;23.70;99.90;;;;;;5104348;28;19987;-72
2022/08/20 13:34:26;;;;;;;;;;;23.00;99.90;;;;;;5103976;28;19999;-72
2022/08/20 13:36:54;;;;;;;;;;;21.90;99.90;;;;;;5104078;28;19927;-72
2022/08/20 13:39:21;;;;;;;;;;;21.10;99.90;;;;;;5104224;28;20208;-72
2022/08/20 13:41:47;;;;;;;;;;;20.80;99.90;;;;;;5102915;28;20003;-72
2022/08/20 13:44:15;;;;;;;;;;;20.40;99.90;;;;;;5103814;28;19943;-72
2022/08/20 13:46:42;;;;;;;;;;;20.20;99.90;;;;;;5103875;28;20204;-72
2022/08/20 13:49:08;;;;;;;;;;;20.10;99.90;;;;;;5104369;28;19986;-72
2022/08/20 13:51:35;;;;;;;;;;;20.00;99.90;;;;;;5104046;28;19942;-72
2022/08/20 13:54:02;;;;;;;;;;;20.10;99.90;;;;;;5103603;28;20165;-72
2022/08/20 13:56:28;;;;;;;;;;;20.20;99.90;;;;;;5103649;28;19991;-72
2022/08/20 13:58:55;;;;;;;;;;;20.40;99.90;;;;;;5103977;28;19983;-72
2022/08/20 14:01:23;;;;;;;;;;;20.50;99.90;;;;;;5103944;28;20183;-72
2022/08/20 14:03:50;;;;;;;;;;;20.60;99.90;;;;;;5103640;28;19951;-72
2022/08/20 14:06:16;;;;;;;;;;;20.70;99.90;;;;;;5103705;28;19926;-72
2022/08/20 14:08:43;;;;;;;;;;;20.90;99.90;;;;;;5103852;28;19955;-72
2022/08/20 14:11:09;;;;;;;;;;;20.90;99.90;;;;;;5103651;28;20066;-72
2022/08/20 14:13:36;;;;;;;;;;;21.00;99.90;;;;;;5103270;28;20251;-73
2022/08/20 14:16:03;;;;;;;;;;;21.10;99.90;;;;;;5103748;28;19986;-72
2022/08/20 14:18:31;;;;;;;;;;;21.10;99.90;;;;;;5103728;28;19926;-72